首页
METAR-TAF:

METAR-TAF

机场 :

汶萊國際機場

文莱, 文莱

纬度: 04-56N, 经度: 114-56E, 海拔: 22米

当前天气观测

该预报发布于18分钟前的00:30 UTC
风速4节,风向
温度 28°C
湿度 84%
气压 1012 hPa
能見度: 8000
少量云层高于1500英尺
多云层高于30000英尺

METAR: WBSB 220030Z 18004KT 8000 FEW015 BKN300 28/25 Q1012 NOSIG

时间: 08:48 (00:48 UTC)

预报

该预报发布于1小时和58分钟前的22:50 UTC
预报有效从22日的 00点(UTC)到 23日的 06点(UTC)
风速3节,风向西转西北
能见度10公里或以上
少量云层高于1500英尺
成为
从 22日的 04点(UTC)到 22日的 05点(UTC)
风速10节,风向北转东北
少量云层高于1700英尺

TAF: WBSB 212250Z 2200/2306 30003KT 9999 FEW015 BECMG 2204/2205 02010KT FEW017

超过4000个机场的气象观测和天气预报(METAR&TAF报告)。

可查询的气象台以黄色和红色小点在地图上表示。

将鼠标移到小点上方,可查看气象台名称。

然后点击查看天气观测和预报。

如需切换地图:点击带黑十字的绿色按钮放大地图;点击带横线的绿色按钮缩小地图;或者点击绿色箭头查看邻近地区的地图。


METAR-TAF: